Time;durP1;ratioP1;P1;durP2;ratioP2;P2;SDS_P1;SDS_P2;PMS_P1;PMS_P2;Temp;Humidity;BMP_temperature;BMP_pressure;BME280_temperature;BME280_humidity;BME280_pressure;Samples;Min_cycle;Max_cycle;Signal;HPM_P1;HPM_P2
2019/12/18 00:00:26;;;;;;;12.7;10;;;;;;;;;;;;;
2019/12/18 00:02:51;;;;;;;12.8;9.6;;;;;;;;;;;;;
2019/12/18 00:05:17;;;;;;;12.2;9.9;;;;;;;;;;;;;
2019/12/18 00:07:42;;;;;;;12.4;9.8;;;;;;;;;;;;;
2019/12/18 00:10:07;;;;;;;13.2;10;;;;;;;;;;;;;
2019/12/18 00:12:32;;;;;;;12.2;9.6;;;;;;;;;;;;;
2019/12/18 00:14:57;;;;;;;12.5;10.3;;;;;;;;;;;;;
2019/12/18 00:17:23;;;;;;;13.1;10.2;;;;;;;;;;;;;
2019/12/18 00:19:47;;;;;;;14;10.3;;;;;;;;;;;;;
2019/12/18 00:22:12;;;;;;;12.6;9.9;;;;;;;;;;;;;
2019/12/18 00:24:37;;;;;;;12.3;10.3;;;;;;;;;;;;;
2019/12/18 00:27:02;;;;;;;12.1;10.3;;;;;;;;;;;;;
2019/12/18 00:29:28;;;;;;;13.3;10.3;;;;;;;;;;;;;
2019/12/18 00:31:53;;;;;;;15.5;11.2;;;;;;;;;;;;;
2019/12/18 00:34:18;;;;;;;13;10.6;;;;;;;;;;;;;
2019/12/18 00:39:27;;;;;;;13.7;11.1;;;;;;;;;;;;;
2019/12/18 00:41:44;;;;;;;13.2;10.6;;;;;;;;;;;;;
2019/12/18 00:44:00;;;;;;;14.4;10.8;;;;;;;;;;;;;
2019/12/18 00:46:23;;;;;;;11.4;9.8;;;;;;;;;;;;;
2019/12/18 00:48:48;;;;;;;13.9;10.7;;;;;;;;;;;;;
2019/12/18 00:51:13;;;;;;;12.6;10;;;;;;;;;;;;;
2019/12/18 00:53:39;;;;;;;12.4;10.3;;;;;;;;;;;;;
2019/12/18 00:56:04;;;;;;;11.7;9.5;;;;;;;;;;;;;
2019/12/18 00:58:29;;;;;;;16;10.2;;;;;;;;;;;;;
2019/12/18 01:00:54;;;;;;;12.2;9.2;;;;;;;;;;;;;
2019/12/18 01:03:19;;;;;;;11.7;9;;;;;;;;;;;;;
2019/12/18 01:05:44;;;;;;;11;8;;;;;;;;;;;;;
2019/12/18 01:08:09;;;;;;;9.2;7.2;;;;;;;;;;;;;
2019/12/18 01:10:34;;;;;;;10.3;7.3;;;;;;;;;;;;;
2019/12/18 01:12:59;;;;;;;9.5;7.1;;;;;;;;;;;;;
2019/12/18 01:15:24;;;;;;;11.1;7.4;;;;;;;;;;;;;
2019/12/18 01:17:50;;;;;;;9.6;6.6;;;;;;;;;;;;;
2019/12/18 01:20:15;;;;;;;9.3;7.2;;;;;;;;;;;;;
2019/12/18 01:22:40;;;;;;;9.5;7;;;;;;;;;;;;;
2019/12/18 01:25:05;;;;;;;9.7;6.9;;;;;;;;;;;;;
2019/12/18 01:27:30;;;;;;;8.4;6.6;;;;;;;;;;;;;
2019/12/18 01:29:55;;;;;;;11;8.9;;;;;;;;;;;;;
2019/12/18 01:32:20;;;;;;;13.1;10.6;;;;;;;;;;;;;
2019/12/18 01:34:45;;;;;;;18;14.1;;;;;;;;;;;;;
2019/12/18 01:37:10;;;;;;;18.6;14.8;;;;;;;;;;;;;
2019/12/18 01:39:35;;;;;;;20.9;16.6;;;;;;;;;;;;;
2019/12/18 01:42:03;;;;;;;23.6;17.8;;;;;;;;;;;;;
2019/12/18 01:44:38;;;;;;;25.4;19.2;;;;;;;;;;;;;
2019/12/18 01:46:51;;;;;;;21.8;16.9;;;;;;;;;;;;;
2019/12/18 01:49:16;;;;;;;21.5;17.5;;;;;;;;;;;;;
2019/12/18 01:51:41;;;;;;;22.8;17.1;;;;;;;;;;;;;
2019/12/18 01:54:06;;;;;;;22.8;17.9;;;;;;;;;;;;;
2019/12/18 01:56:31;;;;;;;23.7;17.5;;;;;;;;;;;;;
2019/12/18 01:58:56;;;;;;;22.6;17;;;;;;;;;;;;;
2019/12/18 02:01:27;;;;;;;21.7;16.6;;;;;;;;;;;;;
2019/12/18 02:04:30;;;;;;;22.2;16.8;;;;;;;;;;;;;
2019/12/18 02:06:11;;;;;;;23.3;16.6;;;;;;;;;;;;;
2019/12/18 02:08:36;;;;;;;20;15.7;;;;;;;;;;;;;
2019/12/18 02:11:01;;;;;;;19.8;15.2;;;;;;;;;;;;;
2019/12/18 02:13:26;;;;;;;21;15.7;;;;;;;;;;;;;
2019/12/18 02:15:52;;;;;;;18.3;14.5;;;;;;;;;;;;;
2019/12/18 02:18:17;;;;;;;20;15.4;;;;;;;;;;;;;
2019/12/18 02:20:42;;;;;;;20.2;14.9;;;;;;;;;;;;;
2019/12/18 02:23:07;;;;;;;19.2;15.2;;;;;;;;;;;;;
2019/12/18 02:25:32;;;;;;;21.9;17;;;;;;;;;;;;;
2019/12/18 02:27:57;;;;;;;21.7;16.2;;;;;;;;;;;;;
2019/12/18 02:30:22;;;;;;;22.3;16.7;;;;;;;;;;;;;
2019/12/18 02:32:48;;;;;;;22.8;18;;;;;;;;;;;;;
2019/12/18 02:35:13;;;;;;;24.4;18.2;;;;;;;;;;;;;
2019/12/18 02:37:38;;;;;;;23.5;16.7;;;;;;;;;;;;;
2019/12/18 02:40:03;;;;;;;20.8;16.5;;;;;;;;;;;;;
2019/12/18 02:42:28;;;;;;;19.6;15.7;;;;;;;;;;;;;
2019/12/18 02:44:53;;;;;;;23.9;18.3;;;;;;;;;;;;;
2019/12/18 02:47:18;;;;;;;22.7;17.8;;;;;;;;;;;;;
2019/12/18 02:49:43;;;;;;;24.8;18;;;;;;;;;;;;;
2019/12/18 02:52:09;;;;;;;23.2;18.9;;;;;;;;;;;;;
2019/12/18 02:54:34;;;;;;;24.5;19.1;;;;;;;;;;;;;
2019/12/18 02:56:59;;;;;;;25.1;19;;;;;;;;;;;;;
2019/12/18 02:59:24;;;;;;;20.2;17.2;;;;;;;;;;;;;
2019/12/18 03:01:49;;;;;;;21.5;17.6;;;;;;;;;;;;;
2019/12/18 03:04:14;;;;;;;21.3;16.7;;;;;;;;;;;;;
2019/12/18 03:06:39;;;;;;;22.8;16.4;;;;;;;;;;;;;
2019/12/18 03:09:04;;;;;;;21.3;16.5;;;;;;;;;;;;;
2019/12/18 03:13:55;;;;;;;19.3;15.6;;;;;;;;;;;;;
2019/12/18 03:16:20;;;;;;;18.6;15.1;;;;;;;;;;;;;
2019/12/18 03:18:45;;;;;;;18.4;15.2;;;;;;;;;;;;;
2019/12/18 03:21:10;;;;;;;17.9;15.2;;;;;;;;;;;;;
2019/12/18 03:23:35;;;;;;;18.3;15.3;;;;;;;;;;;;;
2019/12/18 03:26:00;;;;;;;18.8;14.6;;;;;;;;;;;;;
2019/12/18 03:28:25;;;;;;;17.1;14.7;;;;;;;;;;;;;
2019/12/18 03:30:59;;;;;;;16.4;14.3;;;;;;;;;;;;;
2019/12/18 03:33:33;;;;;;;18.2;14.7;;;;;;;;;;;;;
2019/12/18 03:35:40;;;;;;;19;14.8;;;;;;;;;;;;;
2019/12/18 03:38:05;;;;;;;16;14.3;;;;;;;;;;;;;
2019/12/18 03:40:30;;;;;;;14.8;13.2;;;;;;;;;;;;;
2019/12/18 03:42:55;;;;;;;16.6;13.2;;;;;;;;;;;;;
2019/12/18 03:45:20;;;;;;;14.7;11.6;;;;;;;;;;;;;
2019/12/18 03:47:46;;;;;;;14.4;11.7;;;;;;;;;;;;;
2019/12/18 03:50:11;;;;;;;14.9;12.1;;;;;;;;;;;;;
2019/12/18 03:52:36;;;;;;;15;11.9;;;;;;;;;;;;;
2019/12/18 03:55:01;;;;;;;15.3;11.4;;;;;;;;;;;;;
2019/12/18 03:57:26;;;;;;;11.5;10.1;;;;;;;;;;;;;
2019/12/18 03:59:51;;;;;;;11.8;10.1;;;;;;;;;;;;;
2019/12/18 04:02:28;;;;;;;12.8;9.5;;;;;;;5.8;90.38477;958.8458;;;;
2019/12/18 04:04:53;;;;;;;11.1;9;;;;;;;5.94;89.74512;958.9717;;;;
2019/12/18 04:07:18;;;;;;;10.3;8;;;;;;;6.06;89.16602;959.035;;;;
2019/12/18 04:09:43;;;;;;;12.7;9.1;;;;;;;6.12;90.36328;959.059;;;;
2019/12/18 04:12:08;;;;;;;9.3;7.9;;;;;;;6.04;89.68652;959.0912;;;;
2019/12/18 04:14:37;;;;;;;10.5;7.2;;;;;;;6.08;89.23828;959.0714;;;;
2019/12/18 04:17:00;;;;;;;9.2;7.2;;;;;;;6.14;89.51172;959.1195;;;;
2019/12/18 04:19:24;;;;;;;7.7;5.8;;;;;;;6.25;88.58008;959.1697;;;;
2019/12/18 04:21:49;;;;;;;7.2;5.2;;;;;;;6.32;87.42871;959.2551;;;;
2019/12/18 04:24:14;;;;;;;7.5;5.4;;;;;;;;;;;;;
2019/12/18 04:26:40;;;;;;;7;4.7;;;;;;;;;;;;;
2019/12/18 04:29:05;;;;;;;6.7;4.8;;;;;;;;;;;;;
2019/12/18 04:31:30;;;;;;;6.3;4.3;;;;;;;;;;;;;
2019/12/18 04:33:55;;;;;;;5.6;4;;;;;;;;;;;;;
2019/12/18 04:36:20;;;;;;;4.5;3.6;;;;;;;;;;;;;
2019/12/18 04:38:45;;;;;;;3.9;3.4;;;;;;;;;;;;;
2019/12/18 04:41:10;;;;;;;5.8;3.9;;;;;;;;;;;;;
2019/12/18 04:43:35;;;;;;;6;3.5;;;;;;;;;;;;;
2019/12/18 04:46:00;;;;;;;5;3.6;;;;;;;;;;;;;
2019/12/18 04:48:25;;;;;;;6.8;3.3;;;;;;;;;;;;;
2019/12/18 04:50:50;;;;;;;4.5;3.4;;;;;;;;;;;;;
2019/12/18 04:53:15;;;;;;;4.2;3.1;;;;;;;;;;;;;
2019/12/18 04:55:40;;;;;;;4.9;3.6;;;;;;;;;;;;;
2019/12/18 04:58:06;;;;;;;6;3.7;;;;;;;;;;;;;
2019/12/18 05:00:38;;;;;;;4.8;3.5;;;;;;;;;;;;;
2019/12/18 05:05:38;;;;;;;5.3;3.3;;;;;;;;;;;;;
2019/12/18 05:07:46;;;;;;;6.1;3.3;;;;;;;;;;;;;
2019/12/18 05:10:11;;;;;;;5.9;3.3;;;;;;;;;;;;;
2019/12/18 05:12:36;;;;;;;5.3;2.8;;;;;;;;;;;;;
2019/12/18 05:15:01;;;;;;;5;3.1;;;;;;;;;;;;;
2019/12/18 05:17:26;;;;;;;5.4;3.2;;;;;;;;;;;;;
2019/12/18 05:19:51;;;;;;;5.8;3.1;;;;;;;;;;;;;
2019/12/18 05:22:16;;;;;;;4;3.1;;;;;;;;;;;;;
2019/12/18 05:24:42;;;;;;;6.2;3.4;;;;;;;;;;;;;
2019/12/18 05:27:07;;;;;;;4.5;3.3;;;;;;;;;;;;;
2019/12/18 05:29:32;;;;;;;5.9;3.7;;;;;;;;;;;;;
2019/12/18 05:31:57;;;;;;;6.3;3.6;;;;;;;;;;;;;
2019/12/18 05:34:22;;;;;;;6.6;4;;;;;;;;;;;;;
2019/12/18 05:36:47;;;;;;;7;4.1;;;;;;;;;;;;;
2019/12/18 05:39:12;;;;;;;6;3.6;;;;;;;;;;;;;
2019/12/18 05:41:37;;;;;;;6.9;3.9;;;;;;;;;;;;;
2019/12/18 05:44:02;;;;;;;6.7;3.4;;;;;;;;;;;;;
2019/12/18 05:46:27;;;;;;;6.3;3.4;;;;;;;;;;;;;
2019/12/18 05:48:52;;;;;;;5;3.2;;;;;;;;;;;;;
2019/12/18 05:51:18;;;;;;;4.7;3.3;;;;;;;;;;;;;
2019/12/18 05:53:43;;;;;;;4.1;3;;;;;;;;;;;;;
2019/12/18 05:56:08;;;;;;;5.1;3.3;;;;;;;;;;;;;
2019/12/18 05:58:33;;;;;;;4.1;2.8;;;;;;;;;;;;;
2019/12/18 06:00:58;;;;;;;3.9;3;;;;;;;;;;;;;
2019/12/18 06:03:23;;;;;;;5.9;3.5;;;;;;;;;;;;;
2019/12/18 06:05:48;;;;;;;4.1;2.9;;;;;;;;;;;;;
2019/12/18 06:08:14;;;;;;;5.5;2.9;;;;;;;;;;;;;
2019/12/18 06:10:39;;;;;;;5.8;2.6;;;;;;;;;;;;;
2019/12/18 06:13:04;;;;;;;4.6;3;;;;;;;;;;;;;
2019/12/18 06:15:29;;;;;;;6.5;3.2;;;;;;;;;;;;;
2019/12/18 06:17:54;;;;;;;6;3.2;;;;;;;;;;;;;
2019/12/18 06:20:19;;;;;;;6.5;3.1;;;;;;;;;;;;;
2019/12/18 06:22:44;;;;;;;5.5;2.6;;;;;;;;;;;;;
2019/12/18 06:25:19;;;;;;;6;2.8;;;;;;;;;;;;;
2019/12/18 06:27:44;;;;;;;7.6;2.9;;;;;;;;;;;;;
2019/12/18 06:30:09;;;;;;;8.6;2.8;;;;;;;;;;;;;
2019/12/18 06:32:34;;;;;;;8.3;2.9;;;;;;;;;;;;;
2019/12/18 06:34:59;;;;;;;5.8;2.6;;;;;;;;;;;;;
2019/12/18 06:37:24;;;;;;;4.6;2.5;;;;;;;;;;;;;
2019/12/18 06:42:14;;;;;;;8.4;3;;;;;;;;;;;;;
2019/12/18 06:44:39;;;;;;;9.9;3.1;;;;;;;;;;;;;
2019/12/18 06:47:05;;;;;;;7;3.3;;;;;;;;;;;;;
2019/12/18 06:49:30;;;;;;;8.9;3;;;;;;;;;;;;;
2019/12/18 06:51:55;;;;;;;7.9;3.2;;;;;;;;;;;;;
2019/12/18 06:54:20;;;;;;;8.3;3.2;;;;;;;;;;;;;
2019/12/18 06:56:45;;;;;;;7.1;3.3;;;;;;;;;;;;;
2019/12/18 06:59:10;;;;;;;8.3;3.2;;;;;;;;;;;;;
2019/12/18 07:01:35;;;;;;;5.7;3.1;;;;;;;;;;;;;
2019/12/18 07:04:00;;;;;;;7.5;3;;;;;;;;;;;;;
2019/12/18 07:06:25;;;;;;;8.7;3.1;;;;;;;;;;;;;
2019/12/18 07:08:50;;;;;;;7.4;3.1;;;;;;;;;;;;;
2019/12/18 07:11:15;;;;;;;8;2.9;;;;;;;;;;;;;
2019/12/18 07:13:43;;;;;;;6.7;2.8;;;;;;;;;;;;;
2019/12/18 07:16:06;;;;;;;7.1;2.9;;;;;;;;;;;;;
2019/12/18 07:18:31;;;;;;;8.8;3;;;;;;;;;;;;;
2019/12/18 07:20:56;;;;;;;8.3;2.6;;;;;;;;;;;;;
2019/12/18 07:23:21;;;;;;;6.6;2.7;;;;;;;;;;;;;
2019/12/18 07:25:46;;;;;;;8.1;2.8;;;;;;;;;;;;;
2019/12/18 07:28:11;;;;;;;6.3;2.6;;;;;;;;;;;;;
2019/12/18 07:30:36;;;;;;;7.4;2.9;;;;;;;;;;;;;
2019/12/18 07:33:01;;;;;;;9.4;2.9;;;;;;;;;;;;;
2019/12/18 07:35:26;;;;;;;7.8;2.8;;;;;;;;;;;;;
2019/12/18 07:37:51;;;;;;;9.2;2.8;;;;;;;;;;;;;
2019/12/18 07:40:16;;;;;;;8.9;3.1;;;;;;;;;;;;;
2019/12/18 07:42:41;;;;;;;7.6;2.9;;;;;;;;;;;;;
2019/12/18 07:45:06;;;;;;;7.5;2.7;;;;;;;;;;;;;
2019/12/18 07:47:32;;;;;;;10;3.2;;;;;;;;;;;;;
2019/12/18 07:49:57;;;;;;;11.5;3.4;;;;;;;;;;;;;
2019/12/18 07:52:22;;;;;;;11.8;3.4;;;;;;;;;;;;;
2019/12/18 07:54:47;;;;;;;7.6;2.7;;;;;;;;;;;;;
2019/12/18 07:57:12;;;;;;;10.2;3.4;;;;;;;;;;;;;
2019/12/18 07:59:37;;;;;;;8.5;3;;;;;;;;;;;;;
2019/12/18 08:02:02;;;;;;;9.3;3.3;;;;;;;;;;;;;
2019/12/18 08:04:27;;;;;;;8.4;3.2;;;;;;;;;;;;;
2019/12/18 08:06:52;;;;;;;8.7;3.3;;;;;;;;;;;;;
2019/12/18 08:09:18;;;;;;;8.7;3.3;;;;;;;;;;;;;
2019/12/18 08:11:42;;;;;;;7.8;3.4;;;;;;;;;;;;;
2019/12/18 08:14:08;;;;;;;8.9;3.1;;;;;;;;;;;;;
2019/12/18 08:16:33;;;;;;;10.6;3.3;;;;;;;;;;;;;
2019/12/18 08:18:58;;;;;;;9.4;3.1;;;;;;;;;;;;;
2019/12/18 08:21:23;;;;;;;7.8;3.3;;;;;;;;;;;;;
2019/12/18 08:23:48;;;;;;;7.1;3.1;;;;;;;;;;;;;
2019/12/18 08:26:13;;;;;;;11.1;3.6;;;;;;;;;;;;;
2019/12/18 08:28:38;;;;;;;10.9;3.8;;;;;;;;;;;;;
2019/12/18 08:31:03;;;;;;;9.9;3.5;;;;;;;;;;;;;
2019/12/18 08:33:28;;;;;;;11.4;4;;;;;;;;;;;;;
2019/12/18 08:35:53;;;;;;;9.7;3.6;;;;;;;;;;;;;
2019/12/18 08:38:18;;;;;;;10.8;3.6;;;;;;;;;;;;;
2019/12/18 08:40:44;;;;;;;10.4;4.7;;;;;;;;;;;;;
2019/12/18 08:43:09;;;;;;;13.1;4.4;;;;;;;;;;;;;
2019/12/18 08:45:34;;;;;;;12.7;4.9;;;;;;;;;;;;;
2019/12/18 08:47:59;;;;;;;12.5;5;;;;;;;;;;;;;
2019/12/18 08:50:24;;;;;;;14.2;4.7;;;;;;;;;;;;;
2019/12/18 08:52:49;;;;;;;11.5;5;;;;;;;;;;;;;
2019/12/18 08:55:14;;;;;;;18.3;5.2;;;;;;;;;;;;;
2019/12/18 08:57:39;;;;;;;14.7;5.1;;;;;;;;;;;;;
2019/12/18 09:00:04;;;;;;;14.4;4.7;;;;;;;;;;;;;
2019/12/18 09:02:29;;;;;;;13;4.9;;;;;;;;;;;;;
2019/12/18 09:04:55;;;;;;;10.8;4.1;;;;;;;;;;;;;
2019/12/18 09:07:20;;;;;;;11;4.7;;;;;;;;;;;;;
2019/12/18 09:09:45;;;;;;;13.1;4.5;;;;;;;;;;;;;
2019/12/18 09:12:10;;;;;;;12.8;5.1;;;;;;;;;;;;;
2019/12/18 09:14:35;;;;;;;12.3;4.9;;;;;;;;;;;;;
2019/12/18 09:17:00;;;;;;;12.1;4.9;;;;;;;;;;;;;
2019/12/18 09:19:25;;;;;;;10.9;4.6;;;;;;;;;;;;;
2019/12/18 09:21:50;;;;;;;10.5;4.7;;;;;;;;;;;;;
2019/12/18 09:24:16;;;;;;;11.7;4.6;;;;;;;;;;;;;
2019/12/18 09:26:41;;;;;;;13;5.2;;;;;;;;;;;;;
2019/12/18 09:29:06;;;;;;;13.8;5;;;;;;;;;;;;;
2019/12/18 09:31:31;;;;;;;16;5.6;;;;;;;;;;;;;
2019/12/18 09:33:56;;;;;;;18.4;5.4;;;;;;;;;;;;;
2019/12/18 09:36:21;;;;;;;15;5.1;;;;;;;;;;;;;
2019/12/18 09:38:46;;;;;;;11.9;4.9;;;;;;;;;;;;;
2019/12/18 09:41:11;;;;;;;14.7;5.2;;;;;;;;;;;;;
2019/12/18 09:43:37;;;;;;;11.5;5.1;;;;;;;;;;;;;
2019/12/18 09:46:02;;;;;;;15.5;5.3;;;;;;;;;;;;;
2019/12/18 09:48:27;;;;;;;16.5;5.4;;;;;;;;;;;;;
2019/12/18 09:50:52;;;;;;;12.1;5;;;;;;;;;;;;;
2019/12/18 09:53:17;;;;;;;16;5.5;;;;;;;;;;;;;
2019/12/18 09:55:42;;;;;;;12.1;5.3;;;;;;;;;;;;;
2019/12/18 10:00:32;;;;;;;16.8;5.4;;;;;;;;;;;;;
2019/12/18 10:02:57;;;;;;;17.6;5.7;;;;;;;;;;;;;
2019/12/18 10:05:23;;;;;;;17.5;5.8;;;;;;;;;;;;;
2019/12/18 10:07:59;;;;;;;15.3;5.7;;;;;;;;;;;;;
2019/12/18 10:10:13;;;;;;;15;5.7;;;;;;;;;;;;;
2019/12/18 10:12:38;;;;;;;23.5;5.7;;;;;;;;;;;;;
2019/12/18 10:15:03;;;;;;;18.4;5.6;;;;;;;;;;;;;
2019/12/18 10:17:28;;;;;;;14.8;4.6;;;;;;;;;;;;;
2019/12/18 10:19:53;;;;;;;15.1;4.6;;;;;;;;;;;;;
2019/12/18 10:22:18;;;;;;;17.2;4.5;;;;;;;;;;;;;
2019/12/18 10:24:44;;;;;;;10;4.2;;;;;;;;;;;;;
2019/12/18 10:27:09;;;;;;;13.1;4.7;;;;;;;;;;;;;
2019/12/18 10:29:34;;;;;;;12.1;4.4;;;;;;;;;;;;;
2019/12/18 10:31:59;;;;;;;10.1;4;;;;;;;;;;;;;
2019/12/18 10:34:24;;;;;;;11.7;4.2;;;;;;;;;;;;;
2019/12/18 10:36:49;;;;;;;10.6;4.6;;;;;;;;;;;;;
2019/12/18 10:39:14;;;;;;;12.7;4.3;;;;;;;;;;;;;
2019/12/18 10:41:39;;;;;;;15.5;4.6;;;;;;;;;;;;;
2019/12/18 10:44:04;;;;;;;13.6;4.8;;;;;;;;;;;;;
2019/12/18 10:46:29;;;;;;;14.4;4.3;;;;;;;;;;;;;
2019/12/18 10:48:54;;;;;;;16.6;4.7;;;;;;;;;;;;;
2019/12/18 10:51:20;;;;;;;11.2;4.4;;;;;;;;;;;;;
2019/12/18 10:53:45;;;;;;;18.9;4.5;;;;;;;;;;;;;
2019/12/18 10:56:10;;;;;;;15.3;4;;;;;;;;;;;;;
2019/12/18 10:58:35;;;;;;;18.6;4.5;;;;;;;;;;;;;
2019/12/18 11:01:00;;;;;;;16.8;4.3;;;;;;;;;;;;;
2019/12/18 11:03:25;;;;;;;18;4.5;;;;;;;;;;;;;
2019/12/18 11:05:50;;;;;;;17.2;4.5;;;;;;;;;;;;;
2019/12/18 11:08:15;;;;;;;19.7;4.4;;;;;;;;;;;;;
2019/12/18 11:10:40;;;;;;;15.9;4;;;;;;;;;;;;;
2019/12/18 11:13:05;;;;;;;20;4.2;;;;;;;;;;;;;
2019/12/18 11:15:30;;;;;;;18;4.1;;;;;;;;;;;;;
2019/12/18 11:17:55;;;;;;;17.2;4.1;;;;;;;;;;;;;
2019/12/18 11:20:20;;;;;;;17.6;4.2;;;;;;;;;;;;;
2019/12/18 11:22:46;;;;;;;18.1;4.3;;;;;;;;;;;;;
2019/12/18 11:25:11;;;;;;;20.5;4.6;;;;;;;;;;;;;
2019/12/18 11:27:36;;;;;;;16.7;3.8;;;;;;;;;;;;;
2019/12/18 11:30:01;;;;;;;17.1;4;;;;;;;;;;;;;
2019/12/18 11:32:26;;;;;;;20.1;4.1;;;;;;;;;;;;;
2019/12/18 11:34:51;;;;;;;17.7;3.8;;;;;;;;;;;;;
2019/12/18 11:37:16;;;;;;;16.7;4;;;;;;;;;;;;;
2019/12/18 11:39:41;;;;;;;17.5;4.2;;;;;;;;;;;;;
2019/12/18 11:42:07;;;;;;;18.7;4;;;;;;;;;;;;;
2019/12/18 11:44:32;;;;;;;19.1;3.9;;;;;;;;;;;;;
2019/12/18 11:46:57;;;;;;;19.1;3.9;;;;;;;;;;;;;
2019/12/18 11:49:22;;;;;;;18.4;4.1;;;;;;;;;;;;;
2019/12/18 11:51:47;;;;;;;16.1;4;;;;;;;;;;;;;
2019/12/18 11:54:12;;;;;;;19.2;3.9;;;;;;;;;;;;;
2019/12/18 11:56:37;;;;;;;18.4;4;;;;;;;;;;;;;
2019/12/18 12:01:42;;;;;;;22.9;4.6;;;;;;;;;;;;;
2019/12/18 12:03:52;;;;;;;16.6;4.3;;;;;;;;;;;;;
2019/12/18 12:06:17;;;;;;;17.8;4.8;;;;;;;;;;;;;
2019/12/18 12:08:43;;;;;;;22;5.4;;;;;;;;;;;;;
2019/12/18 12:11:08;;;;;;;14;4.4;;;;;;;;;;;;;
2019/12/18 12:13:33;;;;;;;21.4;5.2;;;;;;;;;;;;;
2019/12/18 12:15:58;;;;;;;17.8;5.3;;;;;;;;;;;;;
2019/12/18 12:18:23;;;;;;;17.7;5.1;;;;;;;;;;;;;
2019/12/18 12:20:48;;;;;;;17.5;4.7;;;;;;;;;;;;;
2019/12/18 12:23:13;;;;;;;18.4;4.7;;;;;;;;;;;;;
2019/12/18 12:25:38;;;;;;;15;4.3;;;;;;;;;;;;;
2019/12/18 12:28:04;;;;;;;18;4.8;;;;;;;;;;;;;
2019/12/18 12:30:29;;;;;;;15.4;4.5;;;;;;;;;;;;;
2019/12/18 12:32:54;;;;;;;15.9;4.6;;;;;;;;;;;;;
2019/12/18 12:35:19;;;;;;;18.1;5;;;;;;;;;;;;;
2019/12/18 12:37:44;;;;;;;17.3;4.9;;;;;;;;;;;;;
2019/12/18 12:40:09;;;;;;;17.9;4.9;;;;;;;;;;;;;
2019/12/18 12:42:34;;;;;;;18.3;4.4;;;;;;;;;;;;;
2019/12/18 12:44:59;;;;;;;16.6;4.2;;;;;;;;;;;;;
2019/12/18 12:47:24;;;;;;;13.8;4;;;;;;;;;;;;;
2019/12/18 12:49:49;;;;;;;14.3;3.9;;;;;;;;;;;;;
2019/12/18 12:52:15;;;;;;;16.2;4.1;;;;;;;;;;;;;
2019/12/18 12:57:12;;;;;;;14.7;3.9;;;;;;;;;;;;;
2019/12/18 12:59:31;;;;;;;18.2;4.2;;;;;;;;;;;;;
2019/12/18 13:02:04;;;;;;;23.3;4.6;;;;;;;;;;;;;
2019/12/18 13:04:20;;;;;;;19.8;4.9;;;;;;;;;;;;;
2019/12/18 13:06:45;;;;;;;14.9;3.8;;;;;;;;;;;;;
2019/12/18 13:09:10;;;;;;;13.6;3.9;;;;;;;;;;;;;
2019/12/18 13:11:35;;;;;;;14.7;3.6;;;;;;;;;;;;;
2019/12/18 13:14:01;;;;;;;15.9;4.3;;;;;;;;;;;;;
2019/12/18 13:16:26;;;;;;;19.9;4.3;;;;;;;;;;;;;
2019/12/18 13:18:51;;;;;;;12.6;3.7;;;;;;;;;;;;;
2019/12/18 13:21:16;;;;;;;17.2;4.5;;;;;;;;;;;;;
2019/12/18 13:23:41;;;;;;;17.3;4.2;;;;;;;;;;;;;
2019/12/18 13:26:06;;;;;;;17.2;4.4;;;;;;;;;;;;;
2019/12/18 13:28:31;;;;;;;18;4;;;;;;;;;;;;;
2019/12/18 13:30:56;;;;;;;14.3;3.7;;;;;;;;;;;;;
2019/12/18 13:33:22;;;;;;;15.7;4.2;;;;;;;;;;;;;
2019/12/18 13:35:46;;;;;;;17.8;4.1;;;;;;;;;;;;;
2019/12/18 13:38:12;;;;;;;16.6;3.9;;;;;;;;;;;;;
2019/12/18 13:40:37;;;;;;;15.3;3.9;;;;;;;;;;;;;
2019/12/18 13:43:02;;;;;;;19.5;4.4;;;;;;;;;;;;;
2019/12/18 13:45:27;;;;;;;16.8;3.9;;;;;;;;;;;;;
2019/12/18 13:47:52;;;;;;;17.2;4.3;;;;;;;;;;;;;
2019/12/18 13:50:17;;;;;;;15.2;4.2;;;;;;;;;;;;;
2019/12/18 13:52:42;;;;;;;12.4;3.7;;;;;;;;;;;;;
2019/12/18 13:55:07;;;;;;;15;4;;;;;;;;;;;;;
2019/12/18 13:57:32;;;;;;;18.1;4.5;;;;;;;;;;;;;
2019/12/18 13:59:57;;;;;;;17.4;4.2;;;;;;;;;;;;;
2019/12/18 14:02:22;;;;;;;14.5;4.1;;;;;;;;;;;;;
2019/12/18 14:04:47;;;;;;;15.8;4.1;;;;;;;;;;;;;
2019/12/18 14:07:13;;;;;;;18.3;5.2;;;;;;;;;;;;;
2019/12/18 14:09:38;;;;;;;12.6;4.5;;;;;;;;;;;;;
2019/12/18 14:12:03;;;;;;;18.2;4.5;;;;;;;;;;;;;
2019/12/18 14:14:28;;;;;;;15;4.9;;;;;;;;;;;;;
2019/12/18 14:16:53;;;;;;;15.6;4.9;;;;;;;;;;;;;
2019/12/18 14:19:18;;;;;;;15.5;4.5;;;;;;;;;;;;;
2019/12/18 14:21:43;;;;;;;13.9;4.2;;;;;;;;;;;;;
2019/12/18 14:24:08;;;;;;;17;4.4;;;;;;;;;;;;;
2019/12/18 14:26:33;;;;;;;14.7;4.4;;;;;;;;;;;;;
2019/12/18 14:29:09;;;;;;;16.5;4.4;;;;;;;;;;;;;
2019/12/18 14:31:34;;;;;;;16.9;4.5;;;;;;;;;;;;;
2019/12/18 14:33:59;;;;;;;14.1;4.1;;;;;;;;;;;;;
2019/12/18 14:36:24;;;;;;;16.2;4.3;;;;;;;;;;;;;
2019/12/18 14:38:49;;;;;;;14.1;4.7;;;;;;;;;;;;;
2019/12/18 14:41:14;;;;;;;16.2;4.6;;;;;;;;;;;;;
2019/12/18 14:43:39;;;;;;;17.5;4.9;;;;;;;;;;;;;
2019/12/18 14:46:04;;;;;;;18.6;4.9;;;;;;;;;;;;;
2019/12/18 14:48:29;;;;;;;15.8;5.4;;;;;;;;;;;;;
2019/12/18 14:50:54;;;;;;;11.8;4.9;;;;;;;;;;;;;
2019/12/18 14:53:19;;;;;;;15.1;4.8;;;;;;;;;;;;;
2019/12/18 14:55:44;;;;;;;10.3;4.5;;;;;;;;;;;;;
2019/12/18 14:58:10;;;;;;;16;5;;;;;;;;;;;;;
2019/12/18 15:00:35;;;;;;;15.8;4.7;;;;;;;;;;;;;
2019/12/18 15:03:00;;;;;;;13.1;5.1;;;;;;;;;;;;;
2019/12/18 15:05:25;;;;;;;16.4;4.9;;;;;;;;;;;;;
2019/12/18 15:07:50;;;;;;;11.7;4.6;;;;;;;;;;;;;
2019/12/18 15:10:18;;;;;;;15.6;5.2;;;;;;;;;;;;;
2019/12/18 15:12:40;;;;;;;13.2;4.9;;;;;;;;;;;;;
2019/12/18 15:15:05;;;;;;;13.5;4.9;;;;;;;;;;;;;
2019/12/18 15:17:30;;;;;;;12.7;5.1;;;;;;;;;;;;;
2019/12/18 15:19:55;;;;;;;15;5;;;;;;;;;;;;;
2019/12/18 15:22:20;;;;;;;13.4;4.8;;;;;;;;;;;;;
2019/12/18 15:24:46;;;;;;;9.1;4.4;;;;;;;;;;;;;
2019/12/18 15:27:11;;;;;;;11.4;4.7;;;;;;;;;;;;;
2019/12/18 15:29:36;;;;;;;15;5.5;;;;;;;;;;;;;
2019/12/18 15:32:20;;;;;;;14.1;5;;;;;;;;;;;;;
2019/12/18 15:34:26;;;;;;;14.2;5.3;;;;;;;;;;;;;
2019/12/18 15:36:51;;;;;;;13.3;4.9;;;;;;;;;;;;;
2019/12/18 15:39:16;;;;;;;12.9;5.4;;;;;;;;;;;;;
2019/12/18 15:41:41;;;;;;;16.2;5.4;;;;;;;;;;;;;
2019/12/18 15:44:06;;;;;;;12;5;;;;;;;;;;;;;
2019/12/18 15:46:32;;;;;;;18.6;6;;;;;;;;;;;;;
2019/12/18 15:48:57;;;;;;;17.4;5.8;;;;;;;;;;;;;
2019/12/18 15:51:22;;;;;;;15.2;6.5;;;;;;;;;;;;;
2019/12/18 15:53:47;;;;;;;21.1;7.8;;;;;;;;;;;;;
2019/12/18 15:56:12;;;;;;;17.1;7.1;;;;;;;;;;;;;
2019/12/18 15:58:37;;;;;;;17.4;7.2;;;;;;;;;;;;;
2019/12/18 16:01:02;;;;;;;15.3;6.6;;;;;;;;;;;;;
2019/12/18 16:03:27;;;;;;;16.8;6.7;;;;;;;;;;;;;
2019/12/18 16:05:52;;;;;;;16.7;6.9;;;;;;;;;;;;;
2019/12/18 16:08:17;;;;;;;16.1;6.3;;;;;;;;;;;;;
2019/12/18 16:12:29;;;;;;;12.2;5.9;;;;;;;;;;;;;
2019/12/18 16:14:54;;;;;;;15.5;6.4;;;;;;;;;;;;;
2019/12/18 16:17:19;;;;;;;17.9;6.7;;;;;;;;;;;;;
2019/12/18 16:19:44;;;;;;;13.2;6.1;;;;;;;;;;;;;
2019/12/18 16:22:09;;;;;;;14.9;6.5;;;;;;;;;;;;;
2019/12/18 16:24:34;;;;;;;14.5;6.2;;;;;;;;;;;;;
2019/12/18 16:26:59;;;;;;;14.7;6;;;;;;;;;;;;;
2019/12/18 16:29:24;;;;;;;16.9;6.3;;;;;;;;;;;;;
2019/12/18 16:31:49;;;;;;;14.3;5.9;;;;;;;;;;;;;
2019/12/18 16:34:14;;;;;;;17;6.7;;;;;;;;;;;;;
2019/12/18 16:36:39;;;;;;;19.3;7.8;;;;;;;;;;;;;
2019/12/18 16:39:05;;;;;;;18;7.7;;;;;;;;;;;;;
2019/12/18 16:41:30;;;;;;;17.7;7.2;;;;;;;;;;;;;
2019/12/18 16:43:55;;;;;;;16.1;6.6;;;;;;;;;;;;;
2019/12/18 16:46:20;;;;;;;13.7;6.3;;;;;;;;;;;;;
2019/12/18 16:48:45;;;;;;;15.1;6.4;;;;;;;;;;;;;
2019/12/18 16:51:10;;;;;;;14.3;5.9;;;;;;;;;;;;;
2019/12/18 16:53:35;;;;;;;16.1;6.6;;;;;;;;;;;;;
2019/12/18 16:56:00;;;;;;;14.4;6.5;;;;;;;;;;;;;
2019/12/18 16:58:25;;;;;;;16.3;6.5;;;;;;;;;;;;;
2019/12/18 17:00:50;;;;;;;14.4;6.6;;;;;;;;;;;;;
2019/12/18 17:03:15;;;;;;;15.9;6.9;;;;;;;;;;;;;
2019/12/18 17:08:11;;;;;;;20.3;8.4;;;;;;;;;;;;;
2019/12/18 17:10:30;;;;;;;16.2;8;;;;;;;;;;;;;
2019/12/18 17:12:56;;;;;;;18.9;8.8;;;;;;;;;;;;;
2019/12/18 17:15:21;;;;;;;21.5;10.1;;;;;;;;;;;;;
2019/12/18 17:17:46;;;;;;;23.9;10.7;;;;;;;;;;;;;
2019/12/18 17:20:11;;;;;;;18.1;9.5;;;;;;;;;;;;;
2019/12/18 17:22:36;;;;;;;20.3;10.8;;;;;;;;;;;;;
2019/12/18 17:25:01;;;;;;;19.5;9.9;;;;;;;;;;;;;
2019/12/18 17:27:26;;;;;;;18;10;;;;;;;;;;;;;
2019/12/18 17:29:51;;;;;;;18.4;9.8;;;;;;;;;;;;;
2019/12/18 17:32:16;;;;;;;19.9;10.5;;;;;;;;;;;;;
2019/12/18 17:34:41;;;;;;;26.3;11.7;;;;;;;;;;;;;
2019/12/18 17:37:06;;;;;;;18.7;10.4;;;;;;;;;;;;;
2019/12/18 17:39:31;;;;;;;19.4;10.7;;;;;;;;;;;;;
2019/12/18 17:41:56;;;;;;;21.6;11;;;;;;;;;;;;;
2019/12/18 17:44:21;;;;;;;20.8;11.4;;;;;;;;;;;;;
2019/12/18 17:46:47;;;;;;;25.4;13.3;;;;;;;;;;;;;
2019/12/18 17:49:12;;;;;;;20.6;12.1;;;;;;;;;;;;;
2019/12/18 17:51:37;;;;;;;22.5;12.2;;;;;;;;;;;;;
2019/12/18 17:54:02;;;;;;;21.9;12.2;;;;;;;;;;;;;
2019/12/18 17:56:36;;;;;;;27.1;13.7;;;;;;;;;;;;;
2019/12/18 17:58:54;;;;;;;24.7;13.8;;;;;;;;;;;;;
2019/12/18 18:01:32;;;;;;;21;13.4;;;;;;;;;;;;;
2019/12/18 18:06:08;;;;;;;22.3;13.3;;;;;;;;;;;;;
2019/12/18 18:08:33;;;;;;;22.4;13.4;;;;;;;;;;;;;
2019/12/18 18:10:58;;;;;;;24.7;13.2;;;;;;;;;;;;;
2019/12/18 18:13:23;;;;;;;22.2;13.1;;;;;;;;;;;;;
2019/12/18 18:15:48;;;;;;;22.5;12.5;;;;;;;;;;;;;
2019/12/18 18:18:13;;;;;;;21.2;12.4;;;;;;;;;;;;;
2019/12/18 18:20:38;;;;;;;21.6;12.2;;;;;;;;;;;;;
2019/12/18 18:23:04;;;;;;;23.8;12;;;;;;;;;;;;;
2019/12/18 18:25:29;;;;;;;23.7;12;;;;;;;;;;;;;
2019/12/18 18:27:54;;;;;;;19.2;11.8;;;;;;;;;;;;;
2019/12/18 18:30:19;;;;;;;17.1;10.9;;;;;;;;;;;;;
2019/12/18 18:32:44;;;;;;;19.2;10.8;;;;;;;;;;;;;
2019/12/18 18:35:09;;;;;;;18.6;10.4;;;;;;;;;;;;;
2019/12/18 18:37:34;;;;;;;20.3;10;;;;;;;;;;;;;
2019/12/18 18:39:59;;;;;;;20.9;9.7;;;;;;;;;;;;;
2019/12/18 18:42:24;;;;;;;17.5;9.3;;;;;;;;;;;;;
2019/12/18 18:44:49;;;;;;;19.3;9.5;;;;;;;;;;;;;
2019/12/18 18:47:14;;;;;;;23.2;11.1;;;;;;;;;;;;;
2019/12/18 18:49:40;;;;;;;22.2;10.4;;;;;;;;;;;;;
2019/12/18 18:52:05;;;;;;;23.8;9.8;;;;;;;;;;;;;
2019/12/18 18:54:30;;;;;;;22.7;10.8;;;;;;;;;;;;;
2019/12/18 18:56:55;;;;;;;23.4;10.2;;;;;;;;;;;;;
2019/12/18 18:59:20;;;;;;;21.8;9.8;;;;;;;;;;;;;
2019/12/18 19:01:45;;;;;;;21.3;10.1;;;;;;;;;;;;;
2019/12/18 19:04:10;;;;;;;22.2;9.9;;;;;;;;;;;;;
2019/12/18 19:06:35;;;;;;;22.4;9.7;;;;;;;;;;;;;
2019/12/18 19:09:00;;;;;;;20.8;9.9;;;;;;;;;;;;;
2019/12/18 19:11:25;;;;;;;22.5;10;;;;;;;;;;;;;
2019/12/18 19:14:03;;;;;;;17.6;9.4;;;;;;;;;;;;;
2019/12/18 19:16:16;;;;;;;22.5;10.9;;;;;;;;;;;;;
2019/12/18 19:18:40;;;;;;;27.6;12.2;;;;;;;;;;;;;
2019/12/18 19:21:05;;;;;;;28.3;11.9;;;;;;;;;;;;;
2019/12/18 19:23:31;;;;;;;23.1;11.2;;;;;;;;;;;;;
2019/12/18 19:25:57;;;;;;;20.6;10.8;;;;;;;;;;;;;
2019/12/18 19:28:21;;;;;;;20.8;11.6;;;;;;;;;;;;;
2019/12/18 19:30:46;;;;;;;22;12;;;;;;;;;;;;;
2019/12/18 19:33:11;;;;;;;21.5;11.8;;;;;;;;;;;;;
2019/12/18 19:35:36;;;;;;;25.1;12.4;;;;;;;;;;;;;
2019/12/18 19:38:01;;;;;;;20;12.1;;;;;;;;;;;;;
2019/12/18 19:40:26;;;;;;;22.9;12.3;;;;;;;;;;;;;
2019/12/18 19:42:51;;;;;;;20.2;12.3;;;;;;;;;;;;;
2019/12/18 19:45:17;;;;;;;23.6;12.2;;;;;;;;;;;;;
2019/12/18 19:47:42;;;;;;;17.9;11;;;;;;;;;;;;;
2019/12/18 19:50:07;;;;;;;19.8;11.6;;;;;;;;;;;;;
2019/12/18 19:52:32;;;;;;;22.7;11.6;;;;;;;;;;;;;
2019/12/18 19:54:57;;;;;;;22.2;11.9;;;;;;;;;;;;;
2019/12/18 19:57:22;;;;;;;20.4;11.8;;;;;;;;;;;;;
2019/12/18 19:59:49;;;;;;;23.5;12.1;;;;;;;;;;;;;
2019/12/18 20:02:16;;;;;;;20.6;12.1;;;;;;;;;;;;;
2019/12/18 20:04:37;;;;;;;24.4;12.5;;;;;;;;;;;;;
2019/12/18 20:07:02;;;;;;;24.4;12.7;;;;;;;;;;;;;
2019/12/18 20:09:27;;;;;;;23;12.5;;;;;;;;;;;;;
2019/12/18 20:11:53;;;;;;;22.5;12.4;;;;;;;;;;;;;
2019/12/18 20:14:18;;;;;;;24.3;12.9;;;;;;;;;;;;;
2019/12/18 20:16:43;;;;;;;19.9;11.8;;;;;;;;;;;;;
2019/12/18 20:19:08;;;;;;;26.1;12.6;;;;;;;;;;;;;